sensor_id;sensor_type;location;lat;lon;timestamp;P1;durP1;ratioP1;P2;durP2;ratioP2
46216;SDS011;47258;59.424;13.482;2023-08-01T00:01:35;2.45;;;1.38;;
46216;SDS011;47258;59.424;13.482;2023-08-01T00:04:03;3.55;;;1.13;;
46216;SDS011;47258;59.424;13.482;2023-08-01T00:06:30;4.55;;;1.23;;
46216;SDS011;47258;59.424;13.482;2023-08-01T00:08:59;1.75;;;1.08;;
46216;SDS011;47258;59.424;13.482;2023-08-01T00:11:26;4.53;;;1.70;;
46216;SDS011;47258;59.424;13.482;2023-08-01T00:13:53;7.95;;;1.83;;
46216;SDS011;47258;59.424;13.482;2023-08-01T00:16:21;8.68;;;1.40;;
46216;SDS011;47258;59.424;13.482;2023-08-01T00:18:48;1.65;;;1.30;;
46216;SDS011;47258;59.424;13.482;2023-08-01T00:21:15;1.33;;;1.27;;
46216;SDS011;47258;59.424;13.482;2023-08-01T00:23:43;6.05;;;1.75;;
46216;SDS011;47258;59.424;13.482;2023-08-01T00:26:11;1.90;;;1.40;;
46216;SDS011;47258;59.424;13.482;2023-08-01T00:28:39;1.85;;;1.63;;
46216;SDS011;47258;59.424;13.482;2023-08-01T00:31:06;4.82;;;1.60;;
46216;SDS011;47258;59.424;13.482;2023-08-01T00:33:34;3.53;;;1.80;;
46216;SDS011;47258;59.424;13.482;2023-08-01T00:36:02;2.30;;;2.03;;
46216;SDS011;47258;59.424;13.482;2023-08-01T00:38:34;6.55;;;1.98;;
46216;SDS011;47258;59.424;13.482;2023-08-01T00:41:01;5.68;;;1.63;;
46216;SDS011;47258;59.424;13.482;2023-08-01T00:43:30;1.95;;;1.10;;
46216;SDS011;47258;59.424;13.482;2023-08-01T00:45:58;2.03;;;1.55;;
46216;SDS011;47258;59.424;13.482;2023-08-01T00:48:26;2.45;;;1.05;;
46216;SDS011;47258;59.424;13.482;2023-08-01T00:50:54;5.82;;;1.42;;
46216;SDS011;47258;59.424;13.482;2023-08-01T00:53:21;3.20;;;1.65;;
46216;SDS011;47258;59.424;13.482;2023-08-01T00:55:49;3.60;;;1.67;;
46216;SDS011;47258;59.424;13.482;2023-08-01T00:58:18;3.30;;;2.17;;
46216;SDS011;47258;59.424;13.482;2023-08-01T01:00:46;4.53;;;2.78;;
46216;SDS011;47258;59.424;13.482;2023-08-01T01:03:14;2.90;;;2.03;;
46216;SDS011;47258;59.424;13.482;2023-08-01T01:05:42;4.53;;;2.20;;
46216;SDS011;47258;59.424;13.482;2023-08-01T01:08:10;6.95;;;2.00;;
46216;SDS011;47258;59.424;13.482;2023-08-01T01:10:37;5.93;;;1.90;;
46216;SDS011;47258;59.424;13.482;2023-08-01T01:13:05;5.25;;;1.70;;
46216;SDS011;47258;59.424;13.482;2023-08-01T01:15:32;2.92;;;1.38;;
46216;SDS011;47258;59.424;13.482;2023-08-01T01:18:01;4.38;;;1.30;;
46216;SDS011;47258;59.424;13.482;2023-08-01T01:20:32;7.30;;;1.80;;
46216;SDS011;47258;59.424;13.482;2023-08-01T01:23:00;5.30;;;2.00;;
46216;SDS011;47258;59.424;13.482;2023-08-01T01:25:28;4.83;;;2.20;;
46216;SDS011;47258;59.424;13.482;2023-08-01T01:27:57;2.22;;;1.98;;
46216;SDS011;47258;59.424;13.482;2023-08-01T01:30:24;11.45;;;1.83;;
46216;SDS011;47258;59.424;13.482;2023-08-01T01:32:53;2.05;;;1.38;;
46216;SDS011;47258;59.424;13.482;2023-08-01T01:35:21;8.93;;;2.17;;
46216;SDS011;47258;59.424;13.482;2023-08-01T01:37:50;4.80;;;1.85;;
46216;SDS011;47258;59.424;13.482;2023-08-01T01:40:17;2.15;;;1.42;;
46216;SDS011;47258;59.424;13.482;2023-08-01T01:42:44;1.92;;;1.60;;
46216;SDS011;47258;59.424;13.482;2023-08-01T01:45:13;2.90;;;1.70;;
46216;SDS011;47258;59.424;13.482;2023-08-01T01:47:40;1.58;;;1.40;;
46216;SDS011;47258;59.424;13.482;2023-08-01T01:50:08;3.05;;;1.23;;
46216;SDS011;47258;59.424;13.482;2023-08-01T01:52:35;1.75;;;1.65;;
46216;SDS011;47258;59.424;13.482;2023-08-01T01:55:04;5.28;;;1.40;;
46216;SDS011;47258;59.424;13.482;2023-08-01T01:57:32;5.38;;;2.33;;
46216;SDS011;47258;59.424;13.482;2023-08-01T02:00:01;3.65;;;1.80;;
46216;SDS011;47258;59.424;13.482;2023-08-01T02:02:28;7.50;;;1.92;;
46216;SDS011;47258;59.424;13.482;2023-08-01T02:04:56;2.17;;;1.83;;
46216;SDS011;47258;59.424;13.482;2023-08-01T02:07:23;5.07;;;2.72;;
46216;SDS011;47258;59.424;13.482;2023-08-01T02:09:50;2.15;;;1.70;;
46216;SDS011;47258;59.424;13.482;2023-08-01T02:12:19;2.55;;;1.63;;
46216;SDS011;47258;59.424;13.482;2023-08-01T02:14:46;9.40;;;1.52;;
46216;SDS011;47258;59.424;13.482;2023-08-01T02:17:13;1.63;;;1.52;;
46216;SDS011;47258;59.424;13.482;2023-08-01T02:19:41;4.85;;;1.50;;
46216;SDS011;47258;59.424;13.482;2023-08-01T02:22:08;1.80;;;1.63;;
46216;SDS011;47258;59.424;13.482;2023-08-01T02:24:35;1.27;;;1.27;;
46216;SDS011;47258;59.424;13.482;2023-08-01T02:27:03;7.22;;;1.83;;
46216;SDS011;47258;59.424;13.482;2023-08-01T02:29:32;2.75;;;1.63;;
46216;SDS011;47258;59.424;13.482;2023-08-01T02:31:59;1.23;;;1.10;;
46216;SDS011;47258;59.424;13.482;2023-08-01T02:34:26;2.28;;;1.45;;
46216;SDS011;47258;59.424;13.482;2023-08-01T02:36:53;1.10;;;1.10;;
46216;SDS011;47258;59.424;13.482;2023-08-01T02:39:20;1.85;;;1.40;;
46216;SDS011;47258;59.424;13.482;2023-08-01T02:41:47;1.60;;;1.50;;
46216;SDS011;47258;59.424;13.482;2023-08-01T02:44:15;1.95;;;1.67;;
46216;SDS011;47258;59.424;13.482;2023-08-01T02:46:43;2.97;;;1.50;;
46216;SDS011;47258;59.424;13.482;2023-08-01T02:49:10;1.75;;;1.40;;
46216;SDS011;47258;59.424;13.482;2023-08-01T02:51:37;3.03;;;1.60;;
46216;SDS011;47258;59.424;13.482;2023-08-01T02:54:04;2.17;;;1.85;;
46216;SDS011;47258;59.424;13.482;2023-08-01T02:56:31;2.17;;;1.77;;
46216;SDS011;47258;59.424;13.482;2023-08-01T02:58:59;2.10;;;1.90;;
46216;SDS011;47258;59.424;13.482;2023-08-01T03:01:26;2.10;;;1.80;;
46216;SDS011;47258;59.424;13.482;2023-08-01T03:03:54;5.90;;;1.50;;
46216;SDS011;47258;59.424;13.482;2023-08-01T03:06:21;4.13;;;2.00;;
46216;SDS011;47258;59.424;13.482;2023-08-01T03:08:48;4.60;;;1.63;;
46216;SDS011;47258;59.424;13.482;2023-08-01T03:11:16;2.95;;;1.83;;
46216;SDS011;47258;59.424;13.482;2023-08-01T03:13:43;3.78;;;2.05;;
46216;SDS011;47258;59.424;13.482;2023-08-01T03:16:10;7.40;;;2.17;;
46216;SDS011;47258;59.424;13.482;2023-08-01T03:18:37;2.38;;;2.25;;
46216;SDS011;47258;59.424;13.482;2023-08-01T03:21:05;3.25;;;2.05;;
46216;SDS011;47258;59.424;13.482;2023-08-01T03:23:33;2.10;;;1.90;;
46216;SDS011;47258;59.424;13.482;2023-08-01T03:26:00;6.40;;;2.20;;
46216;SDS011;47258;59.424;13.482;2023-08-01T03:28:27;3.58;;;1.85;;
46216;SDS011;47258;59.424;13.482;2023-08-01T03:30:54;2.50;;;2.30;;
46216;SDS011;47258;59.424;13.482;2023-08-01T03:33:21;2.55;;;2.15;;
46216;SDS011;47258;59.424;13.482;2023-08-01T03:35:48;2.88;;;2.00;;
46216;SDS011;47258;59.424;13.482;2023-08-01T03:38:17;5.38;;;2.90;;
46216;SDS011;47258;59.424;13.482;2023-08-01T03:40:44;5.07;;;2.30;;
46216;SDS011;47258;59.424;13.482;2023-08-01T03:43:11;12.02;;;2.90;;
46216;SDS011;47258;59.424;13.482;2023-08-01T03:45:39;3.67;;;2.88;;
46216;SDS011;47258;59.424;13.482;2023-08-01T03:48:06;5.55;;;2.92;;
46216;SDS011;47258;59.424;13.482;2023-08-01T03:50:33;5.35;;;1.80;;
46216;SDS011;47258;59.424;13.482;2023-08-01T03:53:01;1.95;;;1.60;;
46216;SDS011;47258;59.424;13.482;2023-08-01T03:55:29;2.10;;;1.48;;
46216;SDS011;47258;59.424;13.482;2023-08-01T03:57:56;2.10;;;1.52;;
46216;SDS011;47258;59.424;13.482;2023-08-01T04:00:23;5.78;;;2.55;;
46216;SDS011;47258;59.424;13.482;2023-08-01T04:02:51;3.33;;;2.28;;
46216;SDS011;47258;59.424;13.482;2023-08-01T04:05:18;3.72;;;2.33;;
46216;SDS011;47258;59.424;13.482;2023-08-01T04:07:45;4.15;;;2.30;;
46216;SDS011;47258;59.424;13.482;2023-08-01T04:10:12;3.40;;;2.05;;
46216;SDS011;47258;59.424;13.482;2023-08-01T04:12:40;2.15;;;2.03;;
46216;SDS011;47258;59.424;13.482;2023-08-01T04:15:08;3.40;;;1.85;;
46216;SDS011;47258;59.424;13.482;2023-08-01T04:17:35;2.25;;;2.05;;
46216;SDS011;47258;59.424;13.482;2023-08-01T04:20:03;2.88;;;1.40;;
46216;SDS011;47258;59.424;13.482;2023-08-01T04:22:31;5.40;;;1.50;;
46216;SDS011;47258;59.424;13.482;2023-08-01T04:24:58;1.45;;;1.35;;
46216;SDS011;47258;59.424;13.482;2023-08-01T04:27:25;4.18;;;1.95;;
46216;SDS011;47258;59.424;13.482;2023-08-01T04:29:54;4.63;;;2.22;;
46216;SDS011;47258;59.424;13.482;2023-08-01T04:34:48;4.05;;;1.70;;
46216;SDS011;47258;59.424;13.482;2023-08-01T04:37:15;4.95;;;1.85;;
46216;SDS011;47258;59.424;13.482;2023-08-01T04:39:45;1.83;;;1.73;;
46216;SDS011;47258;59.424;13.482;2023-08-01T04:42:13;2.90;;;1.90;;
46216;SDS011;47258;59.424;13.482;2023-08-01T04:44:40;1.65;;;1.25;;
46216;SDS011;47258;59.424;13.482;2023-08-01T04:47:08;3.63;;;2.38;;
46216;SDS011;47258;59.424;13.482;2023-08-01T04:49:35;1.83;;;1.73;;
46216;SDS011;47258;59.424;13.482;2023-08-01T04:52:03;2.45;;;2.33;;
46216;SDS011;47258;59.424;13.482;2023-08-01T04:54:30;3.53;;;2.70;;
46216;SDS011;47258;59.424;13.482;2023-08-01T04:56:58;3.50;;;3.03;;
46216;SDS011;47258;59.424;13.482;2023-08-01T04:59:25;6.25;;;2.58;;
46216;SDS011;47258;59.424;13.482;2023-08-01T05:01:52;4.32;;;2.50;;
46216;SDS011;47258;59.424;13.482;2023-08-01T05:04:20;3.80;;;2.42;;
46216;SDS011;47258;59.424;13.482;2023-08-01T05:06:47;2.28;;;2.05;;
46216;SDS011;47258;59.424;13.482;2023-08-01T05:09:14;2.60;;;2.35;;
46216;SDS011;47258;59.424;13.482;2023-08-01T05:11:41;2.42;;;2.22;;
46216;SDS011;47258;59.424;13.482;2023-08-01T05:14:08;4.93;;;2.92;;
46216;SDS011;47258;59.424;13.482;2023-08-01T05:16:35;5.43;;;2.20;;
46216;SDS011;47258;59.424;13.482;2023-08-01T05:19:02;3.25;;;2.10;;
46216;SDS011;47258;59.424;13.482;2023-08-01T05:21:31;2.60;;;2.20;;
46216;SDS011;47258;59.424;13.482;2023-08-01T05:23:58;2.20;;;2.10;;
46216;SDS011;47258;59.424;13.482;2023-08-01T05:26:25;2.03;;;1.88;;
46216;SDS011;47258;59.424;13.482;2023-08-01T05:28:52;5.53;;;2.03;;
46216;SDS011;47258;59.424;13.482;2023-08-01T05:31:19;2.55;;;2.10;;
46216;SDS011;47258;59.424;13.482;2023-08-01T05:33:46;1.83;;;1.63;;
46216;SDS011;47258;59.424;13.482;2023-08-01T05:36:13;4.35;;;1.85;;
46216;SDS011;47258;59.424;13.482;2023-08-01T05:38:41;3.38;;;2.35;;
46216;SDS011;47258;59.424;13.482;2023-08-01T05:41:08;4.82;;;1.58;;
46216;SDS011;47258;59.424;13.482;2023-08-01T05:43:35;4.57;;;2.38;;
46216;SDS011;47258;59.424;13.482;2023-08-01T05:46:02;5.22;;;2.35;;
46216;SDS011;47258;59.424;13.482;2023-08-01T05:48:30;3.28;;;1.98;;
46216;SDS011;47258;59.424;13.482;2023-08-01T05:50:57;2.75;;;1.65;;
46216;SDS011;47258;59.424;13.482;2023-08-01T05:53:24;2.15;;;1.65;;
46216;SDS011;47258;59.424;13.482;2023-08-01T05:55:53;2.25;;;1.75;;
46216;SDS011;47258;59.424;13.482;2023-08-01T05:58:20;1.63;;;1.50;;
46216;SDS011;47258;59.424;13.482;2023-08-01T06:00:48;3.00;;;1.70;;
46216;SDS011;47258;59.424;13.482;2023-08-01T06:03:15;3.25;;;1.75;;
46216;SDS011;47258;59.424;13.482;2023-08-01T06:05:42;2.72;;;2.15;;
46216;SDS011;47258;59.424;13.482;2023-08-01T06:08:10;1.88;;;1.55;;
46216;SDS011;47258;59.424;13.482;2023-08-01T06:10:38;4.65;;;1.58;;
46216;SDS011;47258;59.424;13.482;2023-08-01T06:13:07;1.83;;;1.25;;
46216;SDS011;47258;59.424;13.482;2023-08-01T06:15:34;6.38;;;1.65;;
46216;SDS011;47258;59.424;13.482;2023-08-01T06:18:01;5.95;;;1.50;;
46216;SDS011;47258;59.424;13.482;2023-08-01T06:20:28;3.45;;;1.50;;
46216;SDS011;47258;59.424;13.482;2023-08-01T06:22:55;1.95;;;1.08;;
46216;SDS011;47258;59.424;13.482;2023-08-01T06:25:22;6.07;;;1.52;;
46216;SDS011;47258;59.424;13.482;2023-08-01T06:27:50;2.78;;;1.13;;
46216;SDS011;47258;59.424;13.482;2023-08-01T06:30:18;4.40;;;1.15;;
46216;SDS011;47258;59.424;13.482;2023-08-01T06:32:45;1.60;;;1.15;;
46216;SDS011;47258;59.424;13.482;2023-08-01T06:35:12;3.90;;;1.27;;
46216;SDS011;47258;59.424;13.482;2023-08-01T06:37:39;1.77;;;0.93;;
46216;SDS011;47258;59.424;13.482;2023-08-01T06:40:07;3.30;;;0.85;;
46216;SDS011;47258;59.424;13.482;2023-08-01T06:42:34;3.50;;;1.48;;
46216;SDS011;47258;59.424;13.482;2023-08-01T06:45:01;0.70;;;0.65;;
46216;SDS011;47258;59.424;13.482;2023-08-01T06:47:30;1.00;;;0.60;;
46216;SDS011;47258;59.424;13.482;2023-08-01T06:49:57;0.68;;;0.68;;
46216;SDS011;47258;59.424;13.482;2023-08-01T06:52:24;2.08;;;0.85;;
46216;SDS011;47258;59.424;13.482;2023-08-01T06:54:51;4.50;;;0.93;;
46216;SDS011;47258;59.424;13.482;2023-08-01T06:57:18;3.88;;;1.20;;
46216;SDS011;47258;59.424;13.482;2023-08-01T06:59:45;1.63;;;0.77;;
46216;SDS011;47258;59.424;13.482;2023-08-01T07:02:12;2.05;;;0.85;;
46216;SDS011;47258;59.424;13.482;2023-08-01T07:04:41;8.55;;;0.95;;
46216;SDS011;47258;59.424;13.482;2023-08-01T07:07:08;2.75;;;1.17;;
46216;SDS011;47258;59.424;13.482;2023-08-01T07:09:36;3.30;;;1.15;;
46216;SDS011;47258;59.424;13.482;2023-08-01T07:12:03;3.20;;;1.35;;
46216;SDS011;47258;59.424;13.482;2023-08-01T07:14:31;2.67;;;1.13;;
46216;SDS011;47258;59.424;13.482;2023-08-01T07:16:58;3.20;;;1.33;;
46216;SDS011;47258;59.424;13.482;2023-08-01T07:19:25;2.58;;;0.82;;
46216;SDS011;47258;59.424;13.482;2023-08-01T07:21:54;1.83;;;1.20;;
46216;SDS011;47258;59.424;13.482;2023-08-01T07:24:21;1.23;;;0.70;;
46216;SDS011;47258;59.424;13.482;2023-08-01T07:26:48;1.15;;;1.00;;
46216;SDS011;47258;59.424;13.482;2023-08-01T07:29:15;2.30;;;0.82;;
46216;SDS011;47258;59.424;13.482;2023-08-01T07:31:42;2.13;;;1.02;;
46216;SDS011;47258;59.424;13.482;2023-08-01T07:34:09;6.68;;;2.25;;
46216;SDS011;47258;59.424;13.482;2023-08-01T07:36:36;1.52;;;0.70;;
46216;SDS011;47258;59.424;13.482;2023-08-01T07:39:05;1.25;;;0.80;;
46216;SDS011;47258;59.424;13.482;2023-08-01T07:41:32;5.43;;;1.45;;
46216;SDS011;47258;59.424;13.482;2023-08-01T07:44:00;1.88;;;0.80;;
46216;SDS011;47258;59.424;13.482;2023-08-01T07:46:28;2.20;;;0.80;;
46216;SDS011;47258;59.424;13.482;2023-08-01T07:48:55;1.98;;;1.23;;
46216;SDS011;47258;59.424;13.482;2023-08-01T07:51:22;4.97;;;0.70;;
46216;SDS011;47258;59.424;13.482;2023-08-01T07:53:50;0.73;;;0.70;;
46216;SDS011;47258;59.424;13.482;2023-08-01T07:56:19;3.72;;;0.80;;
46216;SDS011;47258;59.424;13.482;2023-08-01T07:58:46;0.60;;;0.60;;
46216;SDS011;47258;59.424;13.482;2023-08-01T08:01:14;0.52;;;0.52;;
46216;SDS011;47258;59.424;13.482;2023-08-01T08:03:41;1.05;;;0.50;;
46216;SDS011;47258;59.424;13.482;2023-08-01T08:06:08;3.83;;;0.80;;
46216;SDS011;47258;59.424;13.482;2023-08-01T08:08:35;3.80;;;0.85;;
46216;SDS011;47258;59.424;13.482;2023-08-01T08:11:02;2.72;;;0.80;;
46216;SDS011;47258;59.424;13.482;2023-08-01T08:13:31;1.10;;;0.47;;
46216;SDS011;47258;59.424;13.482;2023-08-01T08:15:58;1.65;;;0.57;;
46216;SDS011;47258;59.424;13.482;2023-08-01T08:18:25;0.63;;;0.52;;
46216;SDS011;47258;59.424;13.482;2023-08-01T08:20:52;0.95;;;0.40;;
46216;SDS011;47258;59.424;13.482;2023-08-01T08:23:19;4.13;;;0.70;;
46216;SDS011;47258;59.424;13.482;2023-08-01T08:25:46;0.70;;;0.70;;
46216;SDS011;47258;59.424;13.482;2023-08-01T08:28:15;1.55;;;0.50;;
46216;SDS011;47258;59.424;13.482;2023-08-01T08:30:44;2.45;;;0.70;;
46216;SDS011;47258;59.424;13.482;2023-08-01T08:33:17;6.10;;;1.02;;
46216;SDS011;47258;59.424;13.482;2023-08-01T08:35:46;3.25;;;0.73;;
46216;SDS011;47258;59.424;13.482;2023-08-01T08:38:13;1.35;;;1.20;;
46216;SDS011;47258;59.424;13.482;2023-08-01T08:40:40;2.03;;;0.77;;
46216;SDS011;47258;59.424;13.482;2023-08-01T08:43:14;5.55;;;1.00;;
46216;SDS011;47258;59.424;13.482;2023-08-01T08:45:44;1.55;;;0.80;;
46216;SDS011;47258;59.424;13.482;2023-08-01T08:48:15;2.22;;;0.80;;
46216;SDS011;47258;59.424;13.482;2023-08-01T08:50:45;1.95;;;0.60;;
46216;SDS011;47258;59.424;13.482;2023-08-01T08:53:12;5.97;;;1.17;;
46216;SDS011;47258;59.424;13.482;2023-08-01T08:55:40;1.17;;;1.08;;
46216;SDS011;47258;59.424;13.482;2023-08-01T08:58:08;1.73;;;1.02;;
46216;SDS011;47258;59.424;13.482;2023-08-01T09:00:36;4.03;;;0.95;;
46216;SDS011;47258;59.424;13.482;2023-08-01T09:03:05;4.13;;;0.93;;
46216;SDS011;47258;59.424;13.482;2023-08-01T09:05:33;1.45;;;0.88;;
46216;SDS011;47258;59.424;13.482;2023-08-01T09:10:28;2.00;;;0.80;;
46216;SDS011;47258;59.424;13.482;2023-08-01T09:12:57;2.87;;;0.70;;
46216;SDS011;47258;59.424;13.482;2023-08-01T09:15:24;4.05;;;0.88;;
46216;SDS011;47258;59.424;13.482;2023-08-01T09:17:54;2.58;;;1.10;;
46216;SDS011;47258;59.424;13.482;2023-08-01T09:20:27;0.98;;;0.47;;
46216;SDS011;47258;59.424;13.482;2023-08-01T09:22:54;0.65;;;0.47;;
46216;SDS011;47258;59.424;13.482;2023-08-01T09:25:30;1.08;;;0.85;;
46216;SDS011;47258;59.424;13.482;2023-08-01T09:27:58;2.90;;;0.90;;
46216;SDS011;47258;59.424;13.482;2023-08-01T09:30:25;2.88;;;1.30;;
46216;SDS011;47258;59.424;13.482;2023-08-01T09:32:53;0.80;;;0.70;;
46216;SDS011;47258;59.424;13.482;2023-08-01T09:35:20;1.60;;;0.80;;
46216;SDS011;47258;59.424;13.482;2023-08-01T09:37:49;3.22;;;0.98;;
46216;SDS011;47258;59.424;13.482;2023-08-01T09:40:16;2.97;;;0.88;;
46216;SDS011;47258;59.424;13.482;2023-08-01T09:42:43;1.23;;;0.70;;
46216;SDS011;47258;59.424;13.482;2023-08-01T09:45:11;1.77;;;0.98;;
46216;SDS011;47258;59.424;13.482;2023-08-01T09:47:40;0.57;;;0.57;;
46216;SDS011;47258;59.424;13.482;2023-08-01T09:50:08;2.83;;;0.80;;
46216;SDS011;47258;59.424;13.482;2023-08-01T09:52:36;1.48;;;0.60;;
46216;SDS011;47258;59.424;13.482;2023-08-01T09:55:05;3.17;;;0.70;;
46216;SDS011;47258;59.424;13.482;2023-08-01T09:57:32;1.25;;;0.88;;
46216;SDS011;47258;59.424;13.482;2023-08-01T10:00:03;2.40;;;0.77;;
46216;SDS011;47258;59.424;13.482;2023-08-01T10:02:31;1.10;;;0.70;;
46216;SDS011;47258;59.424;13.482;2023-08-01T10:04:59;1.77;;;0.90;;
46216;SDS011;47258;59.424;13.482;2023-08-01T10:07:28;3.10;;;0.90;;
46216;SDS011;47258;59.424;13.482;2023-08-01T10:09:58;1.58;;;0.68;;
46216;SDS011;47258;59.424;13.482;2023-08-01T10:12:27;1.43;;;0.70;;
46216;SDS011;47258;59.424;13.482;2023-08-01T10:14:54;1.05;;;0.80;;
46216;SDS011;47258;59.424;13.482;2023-08-01T10:17:22;4.25;;;0.70;;
46216;SDS011;47258;59.424;13.482;2023-08-01T10:22:21;1.73;;;0.70;;
46216;SDS011;47258;59.424;13.482;2023-08-01T10:24:48;0.47;;;0.45;;
46216;SDS011;47258;59.424;13.482;2023-08-01T10:27:18;3.38;;;0.73;;
46216;SDS011;47258;59.424;13.482;2023-08-01T10:29:57;2.08;;;0.75;;
46216;SDS011;47258;59.424;13.482;2023-08-01T10:32:27;6.95;;;1.17;;
46216;SDS011;47258;59.424;13.482;2023-08-01T10:34:58;1.20;;;0.60;;
46216;SDS011;47258;59.424;13.482;2023-08-01T10:37:25;2.00;;;0.65;;
46216;SDS011;47258;59.424;13.482;2023-08-01T10:39:56;1.13;;;0.60;;
46216;SDS011;47258;59.424;13.482;2023-08-01T10:42:24;2.83;;;0.80;;
46216;SDS011;47258;59.424;13.482;2023-08-01T10:44:51;0.63;;;0.40;;
46216;SDS011;47258;59.424;13.482;2023-08-01T10:47:26;1.88;;;0.70;;
46216;SDS011;47258;59.424;13.482;2023-08-01T10:49:53;3.60;;;0.77;;
46216;SDS011;47258;59.424;13.482;2023-08-01T10:52:21;1.10;;;0.60;;
46216;SDS011;47258;59.424;13.482;2023-08-01T10:54:56;1.77;;;0.95;;
46216;SDS011;47258;59.424;13.482;2023-08-01T10:57:25;4.43;;;1.02;;
46216;SDS011;47258;59.424;13.482;2023-08-01T10:59:52;1.95;;;0.75;;
46216;SDS011;47258;59.424;13.482;2023-08-01T11:02:22;3.03;;;1.42;;
46216;SDS011;47258;59.424;13.482;2023-08-01T11:04:58;2.53;;;0.57;;
46216;SDS011;47258;59.424;13.482;2023-08-01T11:07:26;2.10;;;0.68;;
46216;SDS011;47258;59.424;13.482;2023-08-01T11:10:04;4.53;;;0.73;;
46216;SDS011;47258;59.424;13.482;2023-08-01T11:12:33;4.35;;;1.10;;
46216;SDS011;47258;59.424;13.482;2023-08-01T11:15:01;3.05;;;0.75;;
46216;SDS011;47258;59.424;13.482;2023-08-01T11:20:02;1.17;;;0.82;;
46216;SDS011;47258;59.424;13.482;2023-08-01T11:22:30;1.15;;;0.68;;
46216;SDS011;47258;59.424;13.482;2023-08-01T11:24:57;2.25;;;0.88;;
46216;SDS011;47258;59.424;13.482;2023-08-01T11:27:25;0.63;;;0.60;;
46216;SDS011;47258;59.424;13.482;2023-08-01T11:29:52;2.40;;;0.85;;
46216;SDS011;47258;59.424;13.482;2023-08-01T11:32:19;1.20;;;0.50;;
46216;SDS011;47258;59.424;13.482;2023-08-01T11:34:48;5.25;;;1.08;;
46216;SDS011;47258;59.424;13.482;2023-08-01T11:37:17;3.08;;;0.93;;
46216;SDS011;47258;59.424;13.482;2023-08-01T11:39:45;4.30;;;0.50;;
46216;SDS011;47258;59.424;13.482;2023-08-01T11:42:14;3.97;;;0.65;;
46216;SDS011;47258;59.424;13.482;2023-08-01T11:47:10;4.25;;;0.77;;
46216;SDS011;47258;59.424;13.482;2023-08-01T11:49:39;1.40;;;0.40;;
46216;SDS011;47258;59.424;13.482;2023-08-01T11:52:10;1.85;;;0.70;;
46216;SDS011;47258;59.424;13.482;2023-08-01T11:54:50;3.35;;;0.63;;
46216;SDS011;47258;59.424;13.482;2023-08-01T11:57:19;3.55;;;0.38;;
46216;SDS011;47258;59.424;13.482;2023-08-01T11:59:47;1.65;;;0.60;;
46216;SDS011;47258;59.424;13.482;2023-08-01T12:02:21;2.20;;;0.50;;
46216;SDS011;47258;59.424;13.482;2023-08-01T12:04:49;3.13;;;0.65;;
46216;SDS011;47258;59.424;13.482;2023-08-01T12:07:17;2.13;;;0.80;;
46216;SDS011;47258;59.424;13.482;2023-08-01T12:09:54;1.95;;;0.70;;
46216;SDS011;47258;59.424;13.482;2023-08-01T12:12:21;0.90;;;0.50;;
46216;SDS011;47258;59.424;13.482;2023-08-01T12:14:48;1.30;;;0.60;;
46216;SDS011;47258;59.424;13.482;2023-08-01T12:17:15;2.80;;;0.63;;
46216;SDS011;47258;59.424;13.482;2023-08-01T12:19:42;3.45;;;1.25;;
46216;SDS011;47258;59.424;13.482;2023-08-01T12:22:11;2.38;;;0.60;;
46216;SDS011;47258;59.424;13.482;2023-08-01T12:24:38;2.40;;;0.77;;
46216;SDS011;47258;59.424;13.482;2023-08-01T12:27:07;2.58;;;0.98;;
46216;SDS011;47258;59.424;13.482;2023-08-01T12:29:34;0.85;;;0.65;;
46216;SDS011;47258;59.424;13.482;2023-08-01T12:32:02;1.08;;;0.95;;
46216;SDS011;47258;59.424;13.482;2023-08-01T12:34:29;11.38;;;1.33;;
46216;SDS011;47258;59.424;13.482;2023-08-01T12:36:56;2.20;;;1.00;;
46216;SDS011;47258;59.424;13.482;2023-08-01T12:39:24;3.22;;;0.65;;
46216;SDS011;47258;59.424;13.482;2023-08-01T12:41:51;1.35;;;0.90;;
46216;SDS011;47258;59.424;13.482;2023-08-01T12:44:20;1.75;;;0.80;;
46216;SDS011;47258;59.424;13.482;2023-08-01T12:46:47;2.83;;;1.30;;
46216;SDS011;47258;59.424;13.482;2023-08-01T12:49:14;3.30;;;0.82;;
46216;SDS011;47258;59.424;13.482;2023-08-01T12:51:41;1.13;;;0.73;;
46216;SDS011;47258;59.424;13.482;2023-08-01T12:54:08;2.53;;;0.75;;
46216;SDS011;47258;59.424;13.482;2023-08-01T12:56:35;0.98;;;0.88;;
46216;SDS011;47258;59.424;13.482;2023-08-01T12:59:03;2.80;;;0.90;;
46216;SDS011;47258;59.424;13.482;2023-08-01T13:01:32;1.08;;;0.85;;
46216;SDS011;47258;59.424;13.482;2023-08-01T13:03:59;4.00;;;1.83;;
46216;SDS011;47258;59.424;13.482;2023-08-01T13:06:26;2.70;;;1.02;;
46216;SDS011;47258;59.424;13.482;2023-08-01T13:08:53;3.10;;;1.00;;
46216;SDS011;47258;59.424;13.482;2023-08-01T13:11:20;2.53;;;0.85;;
46216;SDS011;47258;59.424;13.482;2023-08-01T13:13:47;0.82;;;0.82;;
46216;SDS011;47258;59.424;13.482;2023-08-01T13:16:14;1.55;;;0.50;;
46216;SDS011;47258;59.424;13.482;2023-08-01T13:18:42;1.52;;;0.73;;
46216;SDS011;47258;59.424;13.482;2023-08-01T13:21:11;0.68;;;0.68;;
46216;SDS011;47258;59.424;13.482;2023-08-01T13:23:39;1.77;;;0.75;;
46216;SDS011;47258;59.424;13.482;2023-08-01T13:26:06;3.38;;;0.75;;
46216;SDS011;47258;59.424;13.482;2023-08-01T13:28:33;2.28;;;0.35;;
46216;SDS011;47258;59.424;13.482;2023-08-01T13:31:00;0.45;;;0.45;;
46216;SDS011;47258;59.424;13.482;2023-08-01T13:33:27;0.50;;;0.43;;
46216;SDS011;47258;59.424;13.482;2023-08-01T13:35:55;3.10;;;0.57;;
46216;SDS011;47258;59.424;13.482;2023-08-01T13:38:24;0.63;;;0.57;;
46216;SDS011;47258;59.424;13.482;2023-08-01T13:40:51;3.72;;;0.90;;
46216;SDS011;47258;59.424;13.482;2023-08-01T13:43:18;0.98;;;0.55;;
46216;SDS011;47258;59.424;13.482;2023-08-01T13:45:45;3.22;;;0.60;;
46216;SDS011;47258;59.424;13.482;2023-08-01T13:48:12;0.60;;;0.60;;
46216;SDS011;47258;59.424;13.482;2023-08-01T13:50:39;0.93;;;0.38;;
46216;SDS011;47258;59.424;13.482;2023-08-01T13:53:07;3.05;;;0.60;;
46216;SDS011;47258;59.424;13.482;2023-08-01T13:55:37;1.70;;;0.60;;
46216;SDS011;47258;59.424;13.482;2023-08-01T13:58:04;0.52;;;0.40;;
46216;SDS011;47258;59.424;13.482;2023-08-01T14:00:31;0.50;;;0.40;;
46216;SDS011;47258;59.424;13.482;2023-08-01T14:02:59;2.90;;;0.60;;
46216;SDS011;47258;59.424;13.482;2023-08-01T14:05:26;0.88;;;0.57;;
46216;SDS011;47258;59.424;13.482;2023-08-01T14:07:53;2.08;;;0.57;;
46216;SDS011;47258;59.424;13.482;2023-08-01T14:10:23;0.45;;;0.35;;
46216;SDS011;47258;59.424;13.482;2023-08-01T14:12:50;0.88;;;0.38;;
46216;SDS011;47258;59.424;13.482;2023-08-01T14:15:17;1.65;;;0.60;;
46216;SDS011;47258;59.424;13.482;2023-08-01T14:17:44;5.15;;;0.70;;
46216;SDS011;47258;59.424;13.482;2023-08-01T14:20:11;9.07;;;0.70;;
46216;SDS011;47258;59.424;13.482;2023-08-01T14:22:38;5.13;;;0.60;;
46216;SDS011;47258;59.424;13.482;2023-08-01T14:25:08;1.08;;;0.55;;
46216;SDS011;47258;59.424;13.482;2023-08-01T14:27:37;4.85;;;0.57;;
46216;SDS011;47258;59.424;13.482;2023-08-01T14:30:04;1.30;;;0.40;;
46216;SDS011;47258;59.424;13.482;2023-08-01T14:32:32;0.77;;;0.32;;
46216;SDS011;47258;59.424;13.482;2023-08-01T14:35:03;1.55;;;0.90;;
46216;SDS011;47258;59.424;13.482;2023-08-01T14:37:30;2.00;;;0.45;;
46216;SDS011;47258;59.424;13.482;2023-08-01T14:39:57;2.55;;;0.40;;
46216;SDS011;47258;59.424;13.482;2023-08-01T14:42:24;6.50;;;0.90;;
46216;SDS011;47258;59.424;13.482;2023-08-01T14:44:53;0.90;;;0.57;;
46216;SDS011;47258;59.424;13.482;2023-08-01T14:47:20;1.80;;;0.50;;
46216;SDS011;47258;59.424;13.482;2023-08-01T14:49:47;2.08;;;1.02;;